createdAt,value
2023-01-26T00:00:03.307Z,1024.13
2023-01-26T00:00:17.298Z,1024.13
2023-01-26T00:00:31.279Z,1024.13
2023-01-26T00:00:45.269Z,1024.13
2023-01-26T00:00:59.254Z,1024.13
2023-01-26T00:01:13.249Z,1024.13
2023-01-26T00:01:27.235Z,1024.14
2023-01-26T00:01:41.216Z,1024.13
2023-01-26T00:01:55.217Z,1024.13
2023-01-26T00:02:09.221Z,1024.14
2023-01-26T00:02:23.341Z,1024.14
2023-01-26T00:02:37.468Z,1024.14
2023-01-26T00:02:51.543Z,1024.14
2023-01-26T00:03:05.548Z,1024.14
2023-01-26T00:03:19.540Z,1024.14
2023-01-26T00:03:47.598Z,1024.14
2023-01-26T00:04:01.682Z,1024.14
2023-01-26T00:04:15.759Z,1024.14
2023-01-26T00:04:29.748Z,1024.14
2023-01-26T00:04:43.737Z,1024.14
2023-01-26T00:04:57.726Z,1024.14
2023-01-26T00:05:11.720Z,1024.13
2023-01-26T00:05:25.698Z,1024.13
2023-01-26T00:05:39.680Z,1024.13
2023-01-26T00:05:53.691Z,1024.13
2023-01-26T00:06:07.681Z,1024.13
2023-01-26T00:06:21.671Z,1024.13
2023-01-26T00:06:35.645Z,1024.13
2023-01-26T00:06:49.629Z,1024.13
2023-01-26T00:07:03.607Z,1024.13
2023-01-26T00:07:17.583Z,1024.13
2023-01-26T00:07:31.563Z,1024.13
2023-01-26T00:07:45.663Z,1024.13
2023-01-26T00:07:59.650Z,1024.13
2023-01-26T00:08:27.610Z,1024.12
2023-01-26T00:08:41.621Z,1024.12
2023-01-26T00:08:55.655Z,1024.12
2023-01-26T00:09:09.649Z,1024.12
2023-01-26T00:09:23.638Z,1024.11
2023-01-26T00:09:37.643Z,1024.11
2023-01-26T00:09:51.617Z,1024.11
2023-01-26T00:10:05.631Z,1024.11
2023-01-26T00:10:19.621Z,1024.10
2023-01-26T00:10:33.603Z,1024.10
2023-01-26T00:10:47.577Z,1024.10
2023-01-26T00:11:01.570Z,1024.10
2023-01-26T00:11:15.553Z,1024.10
2023-01-26T00:11:29.577Z,1024.10
2023-01-26T00:11:43.587Z,1024.10
2023-01-26T00:11:57.580Z,1024.10
2023-01-26T00:12:11.561Z,1024.10
2023-01-26T00:12:25.573Z,1024.10
2023-01-26T00:12:39.550Z,1024.11
2023-01-26T00:13:07.508Z,1024.11
2023-01-26T00:13:21.498Z,1024.10
2023-01-26T00:13:35.485Z,1024.10
2023-01-26T00:13:49.487Z,1024.10
2023-01-26T00:14:03.487Z,1024.10
2023-01-26T00:14:17.471Z,1024.09
2023-01-26T00:14:31.473Z,1024.09
2023-01-26T00:14:45.456Z,1024.09
2023-01-26T00:14:59.451Z,1024.09
2023-01-26T00:15:13.469Z,1024.09
2023-01-26T00:15:27.456Z,1024.09
2023-01-26T00:15:41.436Z,1024.08
2023-01-26T00:15:55.474Z,1024.08
2023-01-26T00:16:09.543Z,1024.07
2023-01-26T00:16:37.492Z,1024.06
2023-01-26T00:16:51.482Z,1024.06
2023-01-26T00:17:05.471Z,1024.06
2023-01-26T00:17:19.461Z,1024.05
2023-01-26T00:17:33.440Z,1024.05
2023-01-26T00:17:47.446Z,1024.05
2023-01-26T00:18:01.425Z,1024.04
2023-01-26T00:18:15.423Z,1024.03
2023-01-26T00:18:29.410Z,1024.03
2023-01-26T00:18:43.442Z,1024.03
2023-01-26T00:18:57.453Z,1024.03
2023-01-26T00:19:11.438Z,1024.03
2023-01-26T00:19:25.426Z,1024.02
2023-01-26T00:19:39.407Z,1024.02
2023-01-26T00:19:53.393Z,1024.02
2023-01-26T00:20:07.417Z,1024.02
2023-01-26T00:20:21.423Z,1024.01
2023-01-26T00:20:35.426Z,1024.01
2023-01-26T00:20:49.406Z,1024.01
2023-01-26T00:21:17.381Z,1024.00
2023-01-26T00:21:31.365Z,1024.00
2023-01-26T00:21:45.352Z,1023.99
2023-01-26T00:21:59.341Z,1023.99
2023-01-26T00:22:13.327Z,1023.99
2023-01-26T00:22:27.341Z,1023.98
2023-01-26T00:22:41.328Z,1023.99
2023-01-26T00:22:55.321Z,1023.98
2023-01-26T00:23:09.296Z,1023.98
2023-01-26T00:23:23.283Z,1023.98
2023-01-26T00:23:37.271Z,1023.97
2023-01-26T00:23:51.374Z,1023.97
2023-01-26T00:24:05.405Z,1023.97
2023-01-26T00:24:19.497Z,1023.97
2023-01-26T00:24:33.511Z,1023.97
2023-01-26T00:24:47.514Z,1023.97
2023-01-26T00:25:01.552Z,1023.97
2023-01-26T00:25:15.545Z,1023.97
2023-01-26T00:25:29.538Z,1023.96
2023-01-26T00:25:57.494Z,1023.96
2023-01-26T00:26:11.486Z,1023.95
2023-01-26T00:26:25.472Z,1023.95
2023-01-26T00:26:39.452Z,1023.95
2023-01-26T00:26:53.442Z,1023.95
2023-01-26T00:27:07.433Z,1023.95
2023-01-26T00:27:21.488Z,1023.95
2023-01-26T00:27:35.467Z,1023.95
2023-01-26T00:27:49.486Z,1023.95
2023-01-26T00:28:03.473Z,1023.95
2023-01-26T00:28:17.467Z,1023.95
2023-01-26T00:28:31.451Z,1023.95
2023-01-26T00:28:45.437Z,1023.95
2023-01-26T00:28:59.419Z,1023.96
2023-01-26T00:29:13.430Z,1023.96
2023-01-26T00:29:27.433Z,1023.96
2023-01-26T00:29:41.440Z,1023.96
2023-01-26T00:29:55.424Z,1023.96
2023-01-26T00:30:09.867Z,1023.96
2023-01-26T00:30:24.023Z,1023.96
2023-01-26T00:30:38.069Z,1023.96
2023-01-26T00:31:06.081Z,1023.96
2023-01-26T00:31:20.182Z,1023.96
2023-01-26T00:31:34.257Z,1023.96
2023-01-26T00:31:48.299Z,1023.97
2023-01-26T00:32:02.305Z,1023.97
2023-01-26T00:32:16.296Z,1023.97
2023-01-26T00:32:30.297Z,1023.97
2023-01-26T00:32:44.281Z,1023.97
2023-01-26T00:32:58.268Z,1023.97
2023-01-26T00:33:12.264Z,1023.97
2023-01-26T00:33:26.249Z,1023.97
2023-01-26T00:33:40.278Z,1023.97
2023-01-26T00:33:54.304Z,1023.97
2023-01-26T00:34:08.284Z,1023.96
2023-01-26T00:34:22.282Z,1023.96
2023-01-26T00:34:36.258Z,1023.96
2023-01-26T00:34:50.257Z,1023.96
2023-01-26T00:35:04.243Z,1023.95
2023-01-26T00:35:18.225Z,1023.94
2023-01-26T00:35:32.207Z,1023.94
2023-01-26T00:35:46.207Z,1023.93
2023-01-26T00:36:00.184Z,1023.93
2023-01-26T00:36:14.198Z,1023.93
2023-01-26T00:36:28.195Z,1023.92
2023-01-26T00:36:42.187Z,1023.92
2023-01-26T00:36:56.159Z,1023.92
2023-01-26T00:37:10.180Z,1023.92
2023-01-26T00:37:24.184Z,1023.92
2023-01-26T00:37:38.194Z,1023.92
2023-01-26T00:37:52.185Z,1023.91
2023-01-26T00:38:06.185Z,1023.91
2023-01-26T00:38:20.170Z,1023.91
2023-01-26T00:38:34.159Z,1023.92
2023-01-26T00:38:48.144Z,1023.91
2023-01-26T00:39:16.112Z,1023.92
2023-01-26T00:39:30.111Z,1023.92
2023-01-26T00:39:44.110Z,1023.92
2023-01-26T00:39:58.117Z,1023.92
2023-01-26T00:40:12.485Z,1023.92
2023-01-26T00:40:26.599Z,1023.92
2023-01-26T00:40:40.581Z,1023.92
2023-01-26T00:40:54.650Z,1023.92
2023-01-26T00:41:08.677Z,1023.91
2023-01-26T00:41:22.679Z,1023.91
2023-01-26T00:41:36.659Z,1023.91
2023-01-26T00:41:50.662Z,1023.91
2023-01-26T00:42:04.632Z,1023.90
2023-01-26T00:42:18.706Z,1023.90
2023-01-26T00:42:32.678Z,1023.90
2023-01-26T00:42:46.662Z,1023.90
2023-01-26T00:43:00.646Z,1023.90
2023-01-26T00:43:14.627Z,1023.89
2023-01-26T00:43:28.602Z,1023.89
2023-01-26T00:43:56.563Z,1023.89
2023-01-26T00:44:10.569Z,1023.89
2023-01-26T00:44:24.562Z,1023.89
2023-01-26T00:44:38.573Z,1023.89
2023-01-26T00:44:52.548Z,1023.89
2023-01-26T00:45:06.538Z,1023.89
2023-01-26T00:45:20.514Z,1023.90
2023-01-26T00:45:34.499Z,1023.90
2023-01-26T00:45:48.510Z,1023.90
2023-01-26T00:46:02.504Z,1023.91
2023-01-26T00:46:16.496Z,1023.91
2023-01-26T00:46:30.542Z,1023.91
2023-01-26T00:46:44.599Z,1023.91
2023-01-26T00:46:58.641Z,1023.92
2023-01-26T00:47:12.627Z,1023.92
2023-01-26T00:47:26.607Z,1023.92
2023-01-26T00:47:40.587Z,1023.92
2023-01-26T00:47:54.573Z,1023.92
2023-01-26T00:48:08.593Z,1023.91
2023-01-26T00:48:36.553Z,1023.91
2023-01-26T00:48:50.559Z,1023.91
2023-01-26T00:49:04.549Z,1023.90
2023-01-26T00:49:18.563Z,1023.90
2023-01-26T00:49:32.551Z,1023.90
2023-01-26T00:49:46.535Z,1023.89
2023-01-26T00:50:00.513Z,1023.88
2023-01-26T00:50:14.662Z,1023.88
2023-01-26T00:50:28.675Z,1023.88
2023-01-26T00:50:42.671Z,1023.87
2023-01-26T00:50:56.657Z,1023.87
2023-01-26T00:51:10.637Z,1023.87
2023-01-26T00:51:24.694Z,1023.86
2023-01-26T00:51:38.685Z,1023.86
2023-01-26T00:51:52.677Z,1023.86
2023-01-26T00:52:06.664Z,1023.86
2023-01-26T00:52:20.668Z,1023.86
2023-01-26T00:52:34.675Z,1023.86
2023-01-26T00:52:48.672Z,1023.85
2023-01-26T00:53:16.623Z,1023.85
2023-01-26T00:53:30.608Z,1023.85
2023-01-26T00:53:44.616Z,1023.85
2023-01-26T00:53:58.609Z,1023.85
2023-01-26T00:54:12.620Z,1023.85
2023-01-26T00:54:26.625Z,1023.85
2023-01-26T00:54:40.626Z,1023.85
2023-01-26T00:54:54.598Z,1023.86
2023-01-26T00:55:08.624Z,1023.86
2023-01-26T00:55:22.603Z,1023.87
2023-01-26T00:55:36.588Z,1023.87
2023-01-26T00:55:50.570Z,1023.87
2023-01-26T00:56:04.565Z,1023.87
2023-01-26T00:56:18.555Z,1023.88
2023-01-26T00:56:32.555Z,1023.88
2023-01-26T00:56:46.530Z,1023.89
2023-01-26T00:57:00.512Z,1023.89
2023-01-26T00:57:14.499Z,1023.90
2023-01-26T00:57:28.501Z,1023.90
2023-01-26T00:57:42.509Z,1023.91
2023-01-26T00:57:56.510Z,1023.91
2023-01-26T00:58:10.489Z,1023.91
2023-01-26T00:58:24.498Z,1023.91
2023-01-26T00:58:38.477Z,1023.92
2023-01-26T00:58:52.471Z,1023.92
2023-01-26T00:59:06.464Z,1023.93
2023-01-26T00:59:20.488Z,1023.93
2023-01-26T00:59:34.476Z,1023.92
2023-01-26T00:59:48.461Z,1023.92
2023-01-26T01:00:02.458Z,1023.92
2023-01-26T01:00:16.453Z,1023.91
2023-01-26T01:00:30.453Z,1023.91
2023-01-26T01:00:44.481Z,1023.91
2023-01-26T01:00:58.540Z,1023.91
2023-01-26T01:01:26.566Z,1023.89
2023-01-26T01:01:40.668Z,1023.89
2023-01-26T01:01:54.761Z,1023.88
2023-01-26T01:02:08.826Z,1023.87
2023-01-26T01:02:22.859Z,1023.86
2023-01-26T01:02:36.842Z,1023.85
2023-01-26T01:02:50.814Z,1023.85
2023-01-26T01:03:04.799Z,1023.84
2023-01-26T01:03:18.771Z,1023.83
2023-01-26T01:03:32.765Z,1023.82
2023-01-26T01:03:46.750Z,1023.81
2023-01-26T01:04:00.750Z,1023.81
2023-01-26T01:04:14.733Z,1023.80
2023-01-26T01:04:28.741Z,1023.79
2023-01-26T01:04:42.738Z,1023.78
2023-01-26T01:04:56.765Z,1023.78
2023-01-26T01:05:10.766Z,1023.77
2023-01-26T01:05:24.763Z,1023.76
2023-01-26T01:05:38.743Z,1023.76
2023-01-26T01:06:06.686Z,1023.74
2023-01-26T01:06:20.674Z,1023.74
2023-01-26T01:06:34.684Z,1023.73
2023-01-26T01:06:48.670Z,1023.73
2023-01-26T01:07:02.663Z,1023.72
2023-01-26T01:07:16.643Z,1023.72
2023-01-26T01:07:30.631Z,1023.72
2023-01-26T01:07:44.613Z,1023.72
2023-01-26T01:07:58.606Z,1023.72
2023-01-26T01:08:12.591Z,1023.72
2023-01-26T01:08:26.582Z,1023.72
2023-01-26T01:08:40.574Z,1023.72
2023-01-26T01:08:54.559Z,1023.72
2023-01-26T01:09:08.549Z,1023.72
2023-01-26T01:09:22.545Z,1023.72
2023-01-26T01:09:36.518Z,1023.72
2023-01-26T01:09:50.500Z,1023.72
2023-01-26T01:10:04.480Z,1023.72
2023-01-26T01:10:18.465Z,1023.72
2023-01-26T01:10:46.418Z,1023.71
2023-01-26T01:11:00.412Z,1023.71
2023-01-26T01:11:14.416Z,1023.71
2023-01-26T01:11:28.399Z,1023.71
2023-01-26T01:11:42.394Z,1023.71
2023-01-26T01:11:56.367Z,1023.70
2023-01-26T01:12:10.371Z,1023.70
2023-01-26T01:12:24.359Z,1023.69
2023-01-26T01:12:38.369Z,1023.69
2023-01-26T01:12:52.346Z,1023.69
2023-01-26T01:13:06.321Z,1023.69
2023-01-26T01:13:20.302Z,1023.68
2023-01-26T01:13:34.300Z,1023.68
2023-01-26T01:13:48.293Z,1023.68
2023-01-26T01:14:02.292Z,1023.67
2023-01-26T01:14:16.279Z,1023.67
2023-01-26T01:14:30.292Z,1023.67
2023-01-26T01:14:44.304Z,1023.67
2023-01-26T01:14:58.293Z,1023.67
2023-01-26T01:15:12.289Z,1023.67
2023-01-26T01:15:26.286Z,1023.67
2023-01-26T01:15:40.269Z,1023.67
2023-01-26T01:15:54.364Z,1023.67
2023-01-26T01:16:08.442Z,1023.67
2023-01-26T01:16:22.536Z,1023.67
2023-01-26T01:16:36.551Z,1023.67
2023-01-26T01:16:50.532Z,1023.67
2023-01-26T01:17:04.518Z,1023.67
2023-01-26T01:17:18.501Z,1023.66
2023-01-26T01:17:32.506Z,1023.66
2023-01-26T01:17:46.488Z,1023.66
2023-01-26T01:18:00.491Z,1023.66
2023-01-26T01:18:14.475Z,1023.65
2023-01-26T01:18:28.462Z,1023.65
2023-01-26T01:18:56.411Z,1023.64
2023-01-26T01:19:10.412Z,1023.64
2023-01-26T01:19:24.409Z,1023.64
2023-01-26T01:19:38.407Z,1023.64
2023-01-26T01:19:52.413Z,1023.63
2023-01-26T01:20:06.404Z,1023.64
2023-01-26T01:20:20.390Z,1023.64
2023-01-26T01:20:34.369Z,1023.63
2023-01-26T01:20:48.369Z,1023.63
2023-01-26T01:21:02.356Z,1023.64
2023-01-26T01:21:16.345Z,1023.63
2023-01-26T01:21:30.380Z,1023.63
2023-01-26T01:21:44.391Z,1023.63
2023-01-26T01:21:58.365Z,1023.62
2023-01-26T01:22:12.361Z,1023.62
2023-01-26T01:22:26.350Z,1023.62
2023-01-26T01:22:40.358Z,1023.62
2023-01-26T01:22:54.342Z,1023.61
2023-01-26T01:23:08.353Z,1023.61
2023-01-26T01:23:36.323Z,1023.60
2023-01-26T01:23:50.327Z,1023.60
2023-01-26T01:24:04.359Z,1023.60
2023-01-26T01:24:18.459Z,1023.60
2023-01-26T01:24:32.481Z,1023.60
2023-01-26T01:24:46.474Z,1023.59
2023-01-26T01:25:00.476Z,1023.59
2023-01-26T01:25:14.494Z,1023.59
2023-01-26T01:25:28.482Z,1023.59
2023-01-26T01:25:42.460Z,1023.59
2023-01-26T01:25:56.437Z,1023.59
2023-01-26T01:26:10.431Z,1023.59
2023-01-26T01:26:24.425Z,1023.59
2023-01-26T01:26:38.419Z,1023.59
2023-01-26T01:26:52.414Z,1023.58
2023-01-26T01:27:06.420Z,1023.58
2023-01-26T01:27:20.398Z,1023.59
2023-01-26T01:27:34.394Z,1023.58
2023-01-26T01:27:48.367Z,1023.58
2023-01-26T01:28:16.339Z,1023.57
2023-01-26T01:28:30.329Z,1023.57
2023-01-26T01:28:44.315Z,1023.56
2023-01-26T01:28:58.314Z,1023.56
2023-01-26T01:29:12.328Z,1023.56
2023-01-26T01:29:26.333Z,1023.55
2023-01-26T01:29:40.328Z,1023.55
2023-01-26T01:29:54.305Z,1023.54
2023-01-26T01:30:08.558Z,1023.53
2023-01-26T01:30:22.643Z,1023.53
2023-01-26T01:30:36.638Z,1023.53
2023-01-26T01:30:50.658Z,1023.53
2023-01-26T01:31:04.814Z,1023.52
2023-01-26T01:31:19.035Z,1023.52
2023-01-26T01:31:33.235Z,1023.52
2023-01-26T01:31:47.311Z,1023.52
2023-01-26T01:32:01.375Z,1023.51
2023-01-26T01:32:15.376Z,1023.51
2023-01-26T01:32:29.353Z,1023.51
2023-01-26T01:32:43.339Z,1023.51
2023-01-26T01:32:57.321Z,1023.51
2023-01-26T01:33:11.313Z,1023.51
2023-01-26T01:33:25.284Z,1023.51
2023-01-26T01:33:39.276Z,1023.51
2023-01-26T01:33:53.257Z,1023.51
2023-01-26T01:34:07.251Z,1023.50
2023-01-26T01:34:21.253Z,1023.50
2023-01-26T01:34:35.235Z,1023.50
2023-01-26T01:34:49.225Z,1023.50
2023-01-26T01:35:03.209Z,1023.50
2023-01-26T01:35:17.199Z,1023.50
2023-01-26T01:35:31.197Z,1023.49
2023-01-26T01:35:45.180Z,1023.49
2023-01-26T01:35:59.164Z,1023.49
2023-01-26T01:36:27.112Z,1023.49
2023-01-26T01:36:41.109Z,1023.48
2023-01-26T01:36:55.123Z,1023.48
2023-01-26T01:37:09.113Z,1023.48
2023-01-26T01:37:23.101Z,1023.48
2023-01-26T01:37:37.098Z,1023.47
2023-01-26T01:37:51.083Z,1023.47
2023-01-26T01:38:05.053Z,1023.47
2023-01-26T01:38:19.057Z,1023.47
2023-01-26T01:38:33.037Z,1023.47
2023-01-26T01:38:47.059Z,1023.47
2023-01-26T01:39:01.045Z,1023.47
2023-01-26T01:39:29.085Z,1023.46
2023-01-26T01:39:43.070Z,1023.46
2023-01-26T01:39:57.050Z,1023.45
2023-01-26T01:40:11.465Z,1023.45
2023-01-26T01:40:25.606Z,1023.45
2023-01-26T01:40:39.604Z,1023.45
2023-01-26T01:40:53.603Z,1023.45
2023-01-26T01:41:07.601Z,1023.45
2023-01-26T01:41:21.589Z,1023.44
2023-01-26T01:41:35.577Z,1023.44
2023-01-26T01:41:49.555Z,1023.44
2023-01-26T01:42:03.545Z,1023.43
2023-01-26T01:42:17.536Z,1023.43
2023-01-26T01:42:31.522Z,1023.43
2023-01-26T01:42:45.502Z,1023.42
2023-01-26T01:42:59.492Z,1023.42
2023-01-26T01:43:13.474Z,1023.42
2023-01-26T01:43:27.465Z,1023.42
2023-01-26T01:43:41.460Z,1023.42
2023-01-26T01:44:08.257Z,1023.42
2023-01-26T01:44:22.242Z,1023.41
2023-01-26T01:44:36.250Z,1023.41
2023-01-26T01:44:50.229Z,1023.41
2023-01-26T01:45:04.245Z,1023.41
2023-01-26T01:45:18.264Z,1023.40
2023-01-26T01:45:32.255Z,1023.40
2023-01-26T01:45:46.254Z,1023.39
2023-01-26T01:46:00.245Z,1023.39
2023-01-26T01:46:14.267Z,1023.39
2023-01-26T01:46:28.347Z,1023.38
2023-01-26T01:46:42.376Z,1023.38
2023-01-26T01:46:56.537Z,1023.38
2023-01-26T01:47:10.589Z,1023.37
2023-01-26T01:47:24.594Z,1023.36
2023-01-26T01:47:38.583Z,1023.36
2023-01-26T01:47:52.586Z,1023.36
2023-01-26T01:48:06.580Z,1023.35
2023-01-26T01:48:20.574Z,1023.34
2023-01-26T01:48:34.553Z,1023.34
2023-01-26T01:48:48.537Z,1023.34
2023-01-26T01:49:02.529Z,1023.33
2023-01-26T01:49:16.518Z,1023.33
2023-01-26T01:49:30.514Z,1023.33
2023-01-26T01:49:44.555Z,1023.32
2023-01-26T01:49:58.534Z,1023.32
2023-01-26T01:50:12.757Z,1023.32
2023-01-26T01:50:26.803Z,1023.31
2023-01-26T01:50:40.818Z,1023.31
2023-01-26T01:50:54.846Z,1023.31
2023-01-26T01:51:08.832Z,1023.31
2023-01-26T01:51:22.806Z,1023.30
2023-01-26T01:51:36.791Z,1023.30
2023-01-26T01:51:50.774Z,1023.30
2023-01-26T01:52:04.783Z,1023.29
2023-01-26T01:52:18.762Z,1023.29
2023-01-26T01:52:32.760Z,1023.29
2023-01-26T01:52:46.751Z,1023.29
2023-01-26T01:53:00.731Z,1023.28
2023-01-26T01:53:14.716Z,1023.28
2023-01-26T01:53:28.702Z,1023.28
2023-01-26T01:53:42.677Z,1023.28
2023-01-26T01:53:56.665Z,1023.28
2023-01-26T01:54:10.656Z,1023.27
2023-01-26T01:54:24.661Z,1023.27
2023-01-26T01:54:38.689Z,1023.27
2023-01-26T01:54:52.660Z,1023.27
2023-01-26T01:55:06.639Z,1023.27
2023-01-26T01:55:20.618Z,1023.27
2023-01-26T01:55:34.612Z,1023.27
2023-01-26T01:55:48.590Z,1023.27
2023-01-26T01:56:02.629Z,1023.27
2023-01-26T01:56:16.616Z,1023.27
2023-01-26T01:56:30.606Z,1023.27
2023-01-26T01:56:44.617Z,1023.28
2023-01-26T01:56:58.607Z,1023.27
2023-01-26T01:57:12.595Z,1023.27
2023-01-26T01:57:26.599Z,1023.27
2023-01-26T01:57:40.575Z,1023.28
2023-01-26T01:57:54.566Z,1023.27
2023-01-26T01:58:08.544Z,1023.27
2023-01-26T01:58:22.531Z,1023.27
2023-01-26T01:58:36.524Z,1023.27
2023-01-26T01:58:50.538Z,1023.27
2023-01-26T01:59:05.509Z,1023.27
2023-01-26T01:59:19.493Z,1023.27
2023-01-26T01:59:33.485Z,1023.27
2023-01-26T01:59:47.482Z,1023.26
2023-01-26T02:00:01.491Z,1023.26
2023-01-26T02:00:15.524Z,1023.26
2023-01-26T02:00:29.511Z,1023.25
2023-01-26T02:00:43.592Z,1023.25
2023-01-26T02:00:57.641Z,1023.25
2023-01-26T02:01:11.672Z,1023.25
2023-01-26T02:01:25.678Z,1023.24
2023-01-26T02:01:39.734Z,1023.24
2023-01-26T02:01:53.832Z,1023.24
2023-01-26T02:02:07.858Z,1023.24
2023-01-26T02:02:21.916Z,1023.24
2023-01-26T02:02:35.895Z,1023.24
2023-01-26T02:02:49.883Z,1023.24
2023-01-26T02:03:03.861Z,1023.23
2023-01-26T02:03:17.842Z,1023.24
2023-01-26T02:03:45.787Z,1023.24
2023-01-26T02:03:59.775Z,1023.24
2023-01-26T02:04:13.773Z,1023.23
2023-01-26T02:04:27.757Z,1023.23
2023-01-26T02:04:41.749Z,1023.23
2023-01-26T02:04:55.725Z,1023.23
2023-01-26T02:05:09.699Z,1023.23
2023-01-26T02:05:23.684Z,1023.23
2023-01-26T02:05:37.665Z,1023.22
2023-01-26T02:05:51.655Z,1023.22
2023-01-26T02:06:05.660Z,1023.22
2023-01-26T02:06:19.655Z,1023.22
2023-01-26T02:06:33.634Z,1023.22
2023-01-26T02:06:47.644Z,1023.22
2023-01-26T02:07:01.645Z,1023.21
2023-01-26T02:07:15.668Z,1023.22
2023-01-26T02:07:29.654Z,1023.22
2023-01-26T02:07:43.654Z,1023.22
2023-01-26T02:07:57.640Z,1023.22
2023-01-26T02:08:25.626Z,1023.22
2023-01-26T02:08:40.504Z,1023.22
2023-01-26T02:08:54.492Z,1023.23
2023-01-26T02:09:08.481Z,1023.23
2023-01-26T02:09:22.464Z,1023.23
2023-01-26T02:09:36.443Z,1023.23
2023-01-26T02:09:50.494Z,1023.23
2023-01-26T02:10:04.476Z,1023.23
2023-01-26T02:10:18.475Z,1023.22
2023-01-26T02:10:32.462Z,1023.22
2023-01-26T02:10:46.447Z,1023.22
2023-01-26T02:11:00.427Z,1023.21
2023-01-26T02:11:14.415Z,1023.21
2023-01-26T02:11:28.400Z,1023.20
2023-01-26T02:11:42.388Z,1023.20
2023-01-26T02:11:56.371Z,1023.19
2023-01-26T02:12:10.375Z,1023.19
2023-01-26T02:12:24.377Z,1023.19
2023-01-26T02:12:38.350Z,1023.18
2023-01-26T02:12:52.347Z,1023.18
2023-01-26T02:13:06.352Z,1023.17
2023-01-26T02:13:34.336Z,1023.16
2023-01-26T02:13:48.327Z,1023.16
2023-01-26T02:14:02.315Z,1023.15
2023-01-26T02:14:16.306Z,1023.14
2023-01-26T02:14:30.295Z,1023.14
2023-01-26T02:14:44.300Z,1023.13
2023-01-26T02:14:58.314Z,1023.13
2023-01-26T02:15:12.311Z,1023.12
2023-01-26T02:15:26.290Z,1023.12
2023-01-26T02:15:40.279Z,1023.12
2023-01-26T02:15:54.317Z,1023.11
2023-01-26T02:16:08.381Z,1023.11
2023-01-26T02:16:22.437Z,1023.10
2023-01-26T02:16:36.595Z,1023.10
2023-01-26T02:16:50.629Z,1023.10
2023-01-26T02:17:04.626Z,1023.10
2023-01-26T02:17:18.643Z,1023.10
2023-01-26T02:17:32.640Z,1023.09
2023-01-26T02:17:46.631Z,1023.09
2023-01-26T02:18:14.587Z,1023.09
2023-01-26T02:18:28.582Z,1023.09
2023-01-26T02:18:42.571Z,1023.09
2023-01-26T02:18:56.590Z,1023.09
2023-01-26T02:19:10.594Z,1023.09
2023-01-26T02:19:24.581Z,1023.09
2023-01-26T02:19:38.562Z,1023.09
2023-01-26T02:19:52.556Z,1023.08
2023-01-26T02:20:06.544Z,1023.08
2023-01-26T02:20:20.536Z,1023.08
2023-01-26T02:20:34.520Z,1023.08
2023-01-26T02:20:48.501Z,1023.08
2023-01-26T02:21:02.514Z,1023.08
2023-01-26T02:21:16.496Z,1023.08
2023-01-26T02:21:30.483Z,1023.07
2023-01-26T02:21:44.467Z,1023.07
2023-01-26T02:21:58.490Z,1023.07
2023-01-26T02:22:12.478Z,1023.07
2023-01-26T02:22:26.490Z,1023.07
2023-01-26T02:22:54.423Z,1023.06
2023-01-26T02:23:08.403Z,1023.06
2023-01-26T02:23:22.381Z,1023.06
2023-01-26T02:23:36.369Z,1023.06
2023-01-26T02:23:50.413Z,1023.06
2023-01-26T02:24:04.496Z,1023.06
2023-01-26T02:24:18.598Z,1023.06
2023-01-26T02:24:32.587Z,1023.06
2023-01-26T02:24:46.593Z,1023.06
2023-01-26T02:25:00.580Z,1023.05
2023-01-26T02:25:14.567Z,1023.05
2023-01-26T02:25:28.551Z,1023.05
2023-01-26T02:25:42.554Z,1023.05
2023-01-26T02:25:56.547Z,1023.05
2023-01-26T02:26:10.552Z,1023.04
2023-01-26T02:26:24.536Z,1023.04
2023-01-26T02:26:38.532Z,1023.04
2023-01-26T02:26:52.527Z,1023.04
2023-01-26T02:27:06.507Z,1023.03
2023-01-26T02:27:20.490Z,1023.03
2023-01-26T02:27:34.484Z,1023.03
2023-01-26T02:27:48.466Z,1023.02
2023-01-26T02:28:02.459Z,1023.02
2023-01-26T02:28:16.453Z,1023.01
2023-01-26T02:28:30.463Z,1023.00
2023-01-26T02:28:44.467Z,1023.00
2023-01-26T02:28:58.450Z,1022.99
2023-01-26T02:29:12.453Z,1022.98
2023-01-26T02:29:26.448Z,1022.98
2023-01-26T02:29:40.437Z,1022.97
2023-01-26T02:29:54.423Z,1022.96
2023-01-26T02:30:08.740Z,1022.95
2023-01-26T02:30:22.899Z,1022.94
2023-01-26T02:30:36.978Z,1022.94
2023-01-26T02:31:05.096Z,1022.92
2023-01-26T02:31:19.307Z,1022.92
2023-01-26T02:31:33.383Z,1022.92
2023-01-26T02:31:47.433Z,1022.91
2023-01-26T02:32:01.479Z,1022.91
2023-01-26T02:32:15.493Z,1022.91
2023-01-26T02:32:29.486Z,1022.91
2023-01-26T02:32:43.507Z,1022.91
2023-01-26T02:32:57.517Z,1022.91
2023-01-26T02:33:11.502Z,1022.91
2023-01-26T02:33:25.482Z,1022.91
2023-01-26T02:33:39.479Z,1022.90
2023-01-26T02:33:53.469Z,1022.90
2023-01-26T02:34:07.463Z,1022.89
2023-01-26T02:34:21.488Z,1022.88
2023-01-26T02:34:35.525Z,1022.87
2023-01-26T02:34:49.580Z,1022.87
2023-01-26T02:35:03.610Z,1022.86
2023-01-26T02:35:17.615Z,1022.85
2023-01-26T02:35:45.567Z,1022.84
2023-01-26T02:35:59.565Z,1022.84
2023-01-26T02:36:13.550Z,1022.83
2023-01-26T02:36:27.547Z,1022.83
2023-01-26T02:36:41.589Z,1022.82
2023-01-26T02:36:55.578Z,1022.82
2023-01-26T02:37:09.558Z,1022.81
2023-01-26T02:37:23.555Z,1022.81
2023-01-26T02:37:37.554Z,1022.81
2023-01-26T02:37:51.556Z,1022.80
2023-01-26T02:38:05.543Z,1022.80
2023-01-26T02:38:19.540Z,1022.79
2023-01-26T02:38:33.520Z,1022.79
2023-01-26T02:38:47.513Z,1022.79
2023-01-26T02:39:01.487Z,1022.78
2023-01-26T02:39:15.496Z,1022.78
2023-01-26T02:39:29.488Z,1022.78
2023-01-26T02:39:43.480Z,1022.77
2023-01-26T02:39:57.467Z,1022.77
2023-01-26T02:40:25.459Z,1022.77
2023-01-26T02:40:39.452Z,1022.77
2023-01-26T02:40:53.434Z,1022.77
2023-01-26T02:41:07.417Z,1022.77
2023-01-26T02:41:21.406Z,1022.77
2023-01-26T02:41:35.381Z,1022.76
2023-01-26T02:41:49.376Z,1022.76
2023-01-26T02:42:03.367Z,1022.76
2023-01-26T02:42:17.358Z,1022.75
2023-01-26T02:42:31.354Z,1022.75
2023-01-26T02:42:45.358Z,1022.75
2023-01-26T02:42:59.331Z,1022.75
2023-01-26T02:43:13.320Z,1022.74
2023-01-26T02:43:27.312Z,1022.74
2023-01-26T02:43:41.311Z,1022.74
2023-01-26T02:43:55.286Z,1022.74
2023-01-26T02:44:09.275Z,1022.74
2023-01-26T02:44:23.254Z,1022.74
2023-01-26T02:44:37.257Z,1022.74
2023-01-26T02:44:51.248Z,1022.74
2023-01-26T02:45:05.248Z,1022.74
2023-01-26T02:45:19.224Z,1022.74
2023-01-26T02:45:33.234Z,1022.74
2023-01-26T02:45:47.212Z,1022.73
2023-01-26T02:46:01.223Z,1022.73
2023-01-26T02:46:15.285Z,1022.73
2023-01-26T02:46:29.364Z,1022.73
2023-01-26T02:46:43.453Z,1022.73
2023-01-26T02:46:57.484Z,1022.73
2023-01-26T02:47:11.460Z,1022.73
2023-01-26T02:47:25.437Z,1022.72
2023-01-26T02:47:39.421Z,1022.72
2023-01-26T02:47:53.417Z,1022.71
2023-01-26T02:48:07.396Z,1022.71
2023-01-26T02:48:35.375Z,1022.70
2023-01-26T02:48:49.353Z,1022.70
2023-01-26T02:49:03.326Z,1022.70
2023-01-26T02:49:17.319Z,1022.69
2023-01-26T02:49:31.331Z,1022.69
2023-01-26T02:49:45.321Z,1022.68
2023-01-26T02:49:59.318Z,1022.68
2023-01-26T02:50:13.700Z,1022.67
2023-01-26T02:50:27.873Z,1022.67
2023-01-26T02:50:41.915Z,1022.66
2023-01-26T02:50:55.881Z,1022.66
2023-01-26T02:51:09.874Z,1022.66
2023-01-26T02:51:23.864Z,1022.66
2023-01-26T02:51:37.857Z,1022.66
2023-01-26T02:51:51.838Z,1022.66
2023-01-26T02:52:05.829Z,1022.66
2023-01-26T02:52:19.809Z,1022.66
2023-01-26T02:52:33.824Z,1022.66
2023-01-26T02:52:47.858Z,1022.66
2023-01-26T02:53:15.814Z,1022.66
2023-01-26T02:53:29.799Z,1022.66
2023-01-26T02:53:43.813Z,1022.66
2023-01-26T02:53:57.801Z,1022.65
2023-01-26T02:54:11.799Z,1022.65
2023-01-26T02:54:25.785Z,1022.65
2023-01-26T02:54:39.784Z,1022.65
2023-01-26T02:54:53.767Z,1022.65
2023-01-26T02:55:07.757Z,1022.65
2023-01-26T02:55:21.744Z,1022.65
2023-01-26T02:55:35.725Z,1022.65
2023-01-26T02:55:49.711Z,1022.65
2023-01-26T02:56:03.705Z,1022.64
2023-01-26T02:56:17.701Z,1022.64